sensor_id;sensor_type;location;lat;lon;timestamp;P1;durP1;ratioP1;P2;durP2;ratioP2
62796;SDS011;48839;48.546;-4.178;2022-09-03T00:00:11;72.57;;;29.92;;
62796;SDS011;48839;48.546;-4.178;2022-09-03T00:10:38;65.25;;;28.40;;
62796;SDS011;48839;48.546;-4.178;2022-09-03T00:13:08;52.80;;;26.52;;
62796;SDS011;48839;48.546;-4.178;2022-09-03T00:15:38;53.85;;;26.27;;
62796;SDS011;48839;48.546;-4.178;2022-09-03T00:18:13;65.30;;;27.42;;
62796;SDS011;48839;48.546;-4.178;2022-09-03T00:20:41;64.60;;;27.23;;
62796;SDS011;48839;48.546;-4.178;2022-09-03T00:23:10;64.28;;;27.90;;
62796;SDS011;48839;48.546;-4.178;2022-09-03T00:25:42;50.70;;;25.48;;
62796;SDS011;48839;48.546;-4.178;2022-09-03T00:28:16;50.23;;;25.43;;
62796;SDS011;48839;48.546;-4.178;2022-09-03T00:30:44;52.22;;;24.73;;
62796;SDS011;48839;48.546;-4.178;2022-09-03T00:33:13;52.72;;;25.83;;
62796;SDS011;48839;48.546;-4.178;2022-09-03T00:35:46;54.03;;;24.58;;
62796;SDS011;48839;48.546;-4.178;2022-09-03T00:38:15;52.05;;;24.20;;
62796;SDS011;48839;48.546;-4.178;2022-09-03T00:40:49;48.78;;;23.55;;
62796;SDS011;48839;48.546;-4.178;2022-09-03T00:48:29;50.20;;;23.50;;
62796;SDS011;48839;48.546;-4.178;2022-09-03T00:51:16;45.78;;;22.88;;
62796;SDS011;48839;48.546;-4.178;2022-09-03T01:04:07;43.83;;;21.80;;
62796;SDS011;48839;48.546;-4.178;2022-09-03T01:06:44;47.47;;;22.02;;
62796;SDS011;48839;48.546;-4.178;2022-09-03T01:09:37;40.33;;;21.15;;
62796;SDS011;48839;48.546;-4.178;2022-09-03T01:14:46;48.33;;;22.73;;
62796;SDS011;48839;48.546;-4.178;2022-09-03T01:30:23;52.65;;;25.05;;
62796;SDS011;48839;48.546;-4.178;2022-09-03T01:32:55;50.95;;;24.15;;
62796;SDS011;48839;48.546;-4.178;2022-09-03T01:35:37;55.20;;;25.88;;
62796;SDS011;48839;48.546;-4.178;2022-09-03T01:46:24;48.75;;;23.70;;
62796;SDS011;48839;48.546;-4.178;2022-09-03T01:49:05;55.10;;;24.65;;
62796;SDS011;48839;48.546;-4.178;2022-09-03T01:51:35;50.80;;;23.92;;
62796;SDS011;48839;48.546;-4.178;2022-09-03T01:59:32;44.08;;;22.55;;
62796;SDS011;48839;48.546;-4.178;2022-09-03T02:02:04;48.08;;;22.20;;
62796;SDS011;48839;48.546;-4.178;2022-09-03T02:04:32;43.80;;;21.17;;
62796;SDS011;48839;48.546;-4.178;2022-09-03T02:06:59;48.83;;;22.80;;
62796;SDS011;48839;48.546;-4.178;2022-09-03T02:09:26;48.03;;;22.05;;
62796;SDS011;48839;48.546;-4.178;2022-09-03T02:11:53;46.85;;;21.98;;
62796;SDS011;48839;48.546;-4.178;2022-09-03T02:14:21;52.78;;;23.50;;
62796;SDS011;48839;48.546;-4.178;2022-09-03T02:16:47;51.60;;;25.00;;
62796;SDS011;48839;48.546;-4.178;2022-09-03T02:19:14;58.17;;;24.58;;
62796;SDS011;48839;48.546;-4.178;2022-09-03T02:21:44;48.95;;;24.35;;
62796;SDS011;48839;48.546;-4.178;2022-09-03T02:24:12;46.38;;;22.52;;
62796;SDS011;48839;48.546;-4.178;2022-09-03T02:26:38;41.20;;;21.52;;
62796;SDS011;48839;48.546;-4.178;2022-09-03T02:29:04;43.25;;;20.65;;
62796;SDS011;48839;48.546;-4.178;2022-09-03T02:31:30;37.00;;;20.13;;
62796;SDS011;48839;48.546;-4.178;2022-09-03T02:33:58;43.58;;;20.20;;
62796;SDS011;48839;48.546;-4.178;2022-09-03T02:36:25;47.90;;;22.42;;
62796;SDS011;48839;48.546;-4.178;2022-09-03T02:38:51;52.50;;;22.52;;
62796;SDS011;48839;48.546;-4.178;2022-09-03T02:41:18;65.53;;;23.60;;
62796;SDS011;48839;48.546;-4.178;2022-09-03T02:43:48;57.10;;;22.50;;
62796;SDS011;48839;48.546;-4.178;2022-09-03T02:46:22;71.63;;;24.15;;
62796;SDS011;48839;48.546;-4.178;2022-09-03T02:48:51;72.68;;;24.30;;
62796;SDS011;48839;48.546;-4.178;2022-09-03T02:51:17;71.25;;;24.92;;
62796;SDS011;48839;48.546;-4.178;2022-09-03T02:53:43;62.35;;;24.50;;
62796;SDS011;48839;48.546;-4.178;2022-09-03T02:56:09;79.78;;;25.63;;
62796;SDS011;48839;48.546;-4.178;2022-09-03T02:58:36;67.60;;;25.73;;
62796;SDS011;48839;48.546;-4.178;2022-09-03T03:01:02;53.58;;;24.08;;
62796;SDS011;48839;48.546;-4.178;2022-09-03T03:03:29;58.60;;;24.85;;
62796;SDS011;48839;48.546;-4.178;2022-09-03T03:05:55;56.88;;;26.50;;
62796;SDS011;48839;48.546;-4.178;2022-09-03T03:08:24;59.60;;;26.75;;
62796;SDS011;48839;48.546;-4.178;2022-09-03T03:10:51;58.13;;;26.35;;
62796;SDS011;48839;48.546;-4.178;2022-09-03T03:13:18;59.20;;;25.80;;
62796;SDS011;48839;48.546;-4.178;2022-09-03T03:15:44;60.50;;;26.98;;
62796;SDS011;48839;48.546;-4.178;2022-09-03T03:18:11;59.28;;;26.10;;
62796;SDS011;48839;48.546;-4.178;2022-09-03T03:20:38;55.83;;;26.67;;
62796;SDS011;48839;48.546;-4.178;2022-09-03T03:23:04;56.10;;;25.45;;
62796;SDS011;48839;48.546;-4.178;2022-09-03T03:25:34;50.78;;;25.90;;
62796;SDS011;48839;48.546;-4.178;2022-09-03T03:28:00;52.13;;;26.13;;
62796;SDS011;48839;48.546;-4.178;2022-09-03T03:30:28;55.88;;;26.52;;
62796;SDS011;48839;48.546;-4.178;2022-09-03T03:32:55;52.45;;;27.42;;
62796;SDS011;48839;48.546;-4.178;2022-09-03T03:35:21;63.33;;;27.77;;
62796;SDS011;48839;48.546;-4.178;2022-09-03T03:37:47;53.55;;;25.88;;
62796;SDS011;48839;48.546;-4.178;2022-09-03T03:40:13;56.13;;;27.00;;
62796;SDS011;48839;48.546;-4.178;2022-09-03T03:42:40;61.15;;;25.88;;
62796;SDS011;48839;48.546;-4.178;2022-09-03T03:45:06;56.17;;;27.05;;
62796;SDS011;48839;48.546;-4.178;2022-09-03T03:47:34;48.60;;;25.00;;
62796;SDS011;48839;48.546;-4.178;2022-09-03T03:50:00;55.03;;;26.58;;
62796;SDS011;48839;48.546;-4.178;2022-09-03T03:52:26;51.08;;;25.63;;
62796;SDS011;48839;48.546;-4.178;2022-09-03T03:54:52;51.47;;;25.70;;
62796;SDS011;48839;48.546;-4.178;2022-09-03T03:57:19;48.72;;;26.30;;
62796;SDS011;48839;48.546;-4.178;2022-09-03T03:59:47;55.08;;;25.35;;
62796;SDS011;48839;48.546;-4.178;2022-09-03T04:02:13;50.13;;;24.20;;
62796;SDS011;48839;48.546;-4.178;2022-09-03T04:04:39;50.47;;;25.75;;
62796;SDS011;48839;48.546;-4.178;2022-09-03T04:07:05;46.38;;;25.33;;
62796;SDS011;48839;48.546;-4.178;2022-09-03T04:09:31;54.35;;;25.92;;
62796;SDS011;48839;48.546;-4.178;2022-09-03T04:11:58;57.88;;;25.60;;
62796;SDS011;48839;48.546;-4.178;2022-09-03T04:14:24;55.58;;;25.55;;
62796;SDS011;48839;48.546;-4.178;2022-09-03T04:16:51;49.97;;;25.60;;
62796;SDS011;48839;48.546;-4.178;2022-09-03T04:19:17;54.55;;;24.08;;
62796;SDS011;48839;48.546;-4.178;2022-09-03T04:21:43;49.13;;;24.95;;
62796;SDS011;48839;48.546;-4.178;2022-09-03T04:24:10;51.45;;;25.23;;
62796;SDS011;48839;48.546;-4.178;2022-09-03T04:26:36;47.70;;;23.23;;
62796;SDS011;48839;48.546;-4.178;2022-09-03T04:29:04;50.17;;;24.83;;
62796;SDS011;48839;48.546;-4.178;2022-09-03T04:31:30;54.85;;;24.88;;
62796;SDS011;48839;48.546;-4.178;2022-09-03T04:33:56;47.33;;;24.63;;
62796;SDS011;48839;48.546;-4.178;2022-09-03T04:36:24;55.38;;;25.52;;
62796;SDS011;48839;48.546;-4.178;2022-09-03T04:38:51;49.85;;;25.52;;
62796;SDS011;48839;48.546;-4.178;2022-09-03T04:41:19;51.78;;;26.05;;
62796;SDS011;48839;48.546;-4.178;2022-09-03T04:43:45;52.50;;;25.92;;
62796;SDS011;48839;48.546;-4.178;2022-09-03T04:46:13;52.25;;;25.52;;
62796;SDS011;48839;48.546;-4.178;2022-09-03T04:48:40;47.80;;;24.85;;
62796;SDS011;48839;48.546;-4.178;2022-09-03T04:53:39;51.03;;;24.90;;
62796;SDS011;48839;48.546;-4.178;2022-09-03T04:56:15;51.15;;;24.95;;
62796;SDS011;48839;48.546;-4.178;2022-09-03T04:58:41;52.10;;;25.45;;
62796;SDS011;48839;48.546;-4.178;2022-09-03T05:01:11;47.03;;;24.40;;
62796;SDS011;48839;48.546;-4.178;2022-09-03T05:03:38;52.00;;;25.58;;
62796;SDS011;48839;48.546;-4.178;2022-09-03T05:06:04;52.90;;;25.27;;
62796;SDS011;48839;48.546;-4.178;2022-09-03T05:08:30;48.60;;;25.20;;
62796;SDS011;48839;48.546;-4.178;2022-09-03T05:10:59;45.42;;;23.67;;
62796;SDS011;48839;48.546;-4.178;2022-09-03T05:13:26;46.30;;;24.08;;
62796;SDS011;48839;48.546;-4.178;2022-09-03T05:15:52;47.92;;;23.65;;
62796;SDS011;48839;48.546;-4.178;2022-09-03T05:18:23;44.58;;;23.45;;
62796;SDS011;48839;48.546;-4.178;2022-09-03T05:20:56;40.80;;;21.17;;
62796;SDS011;48839;48.546;-4.178;2022-09-03T05:23:22;35.65;;;19.88;;
62796;SDS011;48839;48.546;-4.178;2022-09-03T05:25:58;38.20;;;19.95;;
62796;SDS011;48839;48.546;-4.178;2022-09-03T05:28:25;35.65;;;19.63;;
62796;SDS011;48839;48.546;-4.178;2022-09-03T05:31:02;42.95;;;20.20;;
62796;SDS011;48839;48.546;-4.178;2022-09-03T05:33:28;37.22;;;20.52;;
62796;SDS011;48839;48.546;-4.178;2022-09-03T05:35:59;35.17;;;19.92;;
62796;SDS011;48839;48.546;-4.178;2022-09-03T05:38:26;34.83;;;19.70;;
62796;SDS011;48839;48.546;-4.178;2022-09-03T05:40:52;35.13;;;19.67;;
62796;SDS011;48839;48.546;-4.178;2022-09-03T05:43:18;41.53;;;19.95;;
62796;SDS011;48839;48.546;-4.178;2022-09-03T05:45:45;34.58;;;19.77;;
62796;SDS011;48839;48.546;-4.178;2022-09-03T05:48:11;35.28;;;18.67;;
62796;SDS011;48839;48.546;-4.178;2022-09-03T05:50:37;33.30;;;19.42;;
62796;SDS011;48839;48.546;-4.178;2022-09-03T05:53:03;37.22;;;19.25;;
62796;SDS011;48839;48.546;-4.178;2022-09-03T05:55:29;37.30;;;19.63;;
62796;SDS011;48839;48.546;-4.178;2022-09-03T05:57:55;37.80;;;19.77;;
62796;SDS011;48839;48.546;-4.178;2022-09-03T06:00:21;31.48;;;18.00;;
62796;SDS011;48839;48.546;-4.178;2022-09-03T06:02:51;32.22;;;18.67;;
62796;SDS011;48839;48.546;-4.178;2022-09-03T06:05:17;34.28;;;19.25;;
62796;SDS011;48839;48.546;-4.178;2022-09-03T06:07:43;28.00;;;17.75;;
62796;SDS011;48839;48.546;-4.178;2022-09-03T06:10:12;33.08;;;17.20;;
62796;SDS011;48839;48.546;-4.178;2022-09-03T06:12:41;25.85;;;16.30;;
62796;SDS011;48839;48.546;-4.178;2022-09-03T06:15:09;28.10;;;16.00;;
62796;SDS011;48839;48.546;-4.178;2022-09-03T06:17:36;26.95;;;14.60;;
62796;SDS011;48839;48.546;-4.178;2022-09-03T06:20:02;20.00;;;13.30;;
62796;SDS011;48839;48.546;-4.178;2022-09-03T06:22:28;23.73;;;14.10;;
62796;SDS011;48839;48.546;-4.178;2022-09-03T06:24:55;24.27;;;13.65;;
62796;SDS011;48839;48.546;-4.178;2022-09-03T06:27:21;24.13;;;12.95;;
62796;SDS011;48839;48.546;-4.178;2022-09-03T06:29:48;19.63;;;12.38;;
62796;SDS011;48839;48.546;-4.178;2022-09-03T06:32:14;19.33;;;12.88;;
62796;SDS011;48839;48.546;-4.178;2022-09-03T06:34:40;19.52;;;12.18;;
62796;SDS011;48839;48.546;-4.178;2022-09-03T06:37:06;21.83;;;12.07;;
62796;SDS011;48839;48.546;-4.178;2022-09-03T06:39:32;18.85;;;11.55;;
62796;SDS011;48839;48.546;-4.178;2022-09-03T06:41:58;20.48;;;12.05;;
62796;SDS011;48839;48.546;-4.178;2022-09-03T06:44:24;21.60;;;10.52;;
62796;SDS011;48839;48.546;-4.178;2022-09-03T06:46:50;21.98;;;10.95;;
62796;SDS011;48839;48.546;-4.178;2022-09-03T06:49:17;18.40;;;9.68;;
62796;SDS011;48839;48.546;-4.178;2022-09-03T06:51:44;11.45;;;8.00;;
62796;SDS011;48839;48.546;-4.178;2022-09-03T06:54:10;11.43;;;7.80;;
62796;SDS011;48839;48.546;-4.178;2022-09-03T06:56:37;10.48;;;6.97;;
62796;SDS011;48839;48.546;-4.178;2022-09-03T06:59:05;14.10;;;7.00;;
62796;SDS011;48839;48.546;-4.178;2022-09-03T07:01:32;8.10;;;6.15;;
62796;SDS011;48839;48.546;-4.178;2022-09-03T07:03:59;12.13;;;6.13;;
62796;SDS011;48839;48.546;-4.178;2022-09-03T07:06:26;13.95;;;5.60;;
62796;SDS011;48839;48.546;-4.178;2022-09-03T07:08:53;10.18;;;5.57;;
62796;SDS011;48839;48.546;-4.178;2022-09-03T07:11:22;9.50;;;5.38;;
62796;SDS011;48839;48.546;-4.178;2022-09-03T07:13:50;12.10;;;5.40;;
62796;SDS011;48839;48.546;-4.178;2022-09-03T07:16:19;11.02;;;5.63;;
62796;SDS011;48839;48.546;-4.178;2022-09-03T07:18:46;10.40;;;5.43;;
62796;SDS011;48839;48.546;-4.178;2022-09-03T07:21:14;7.28;;;4.57;;
62796;SDS011;48839;48.546;-4.178;2022-09-03T07:23:40;7.25;;;4.85;;
62796;SDS011;48839;48.546;-4.178;2022-09-03T07:26:11;8.70;;;4.85;;
62796;SDS011;48839;48.546;-4.178;2022-09-03T07:28:38;8.15;;;4.57;;
62796;SDS011;48839;48.546;-4.178;2022-09-03T07:31:09;8.07;;;4.90;;
62796;SDS011;48839;48.546;-4.178;2022-09-03T07:33:39;5.93;;;4.32;;
62796;SDS011;48839;48.546;-4.178;2022-09-03T07:36:09;10.40;;;4.53;;
62796;SDS011;48839;48.546;-4.178;2022-09-03T07:38:36;7.07;;;4.45;;
62796;SDS011;48839;48.546;-4.178;2022-09-03T07:41:06;5.03;;;3.60;;
62796;SDS011;48839;48.546;-4.178;2022-09-03T07:43:33;7.35;;;3.90;;
62796;SDS011;48839;48.546;-4.178;2022-09-03T07:45:59;5.38;;;3.65;;
62796;SDS011;48839;48.546;-4.178;2022-09-03T07:48:25;7.60;;;4.10;;
62796;SDS011;48839;48.546;-4.178;2022-09-03T07:50:52;4.55;;;3.05;;
62796;SDS011;48839;48.546;-4.178;2022-09-03T07:53:18;11.70;;;4.03;;
62796;SDS011;48839;48.546;-4.178;2022-09-03T07:55:45;5.60;;;4.82;;
62796;SDS011;48839;48.546;-4.178;2022-09-03T07:58:12;5.35;;;3.22;;
62796;SDS011;48839;48.546;-4.178;2022-09-03T08:00:38;5.13;;;2.78;;
62796;SDS011;48839;48.546;-4.178;2022-09-03T08:03:04;8.32;;;3.22;;
62796;SDS011;48839;48.546;-4.178;2022-09-03T08:05:33;6.93;;;3.33;;
62796;SDS011;48839;48.546;-4.178;2022-09-03T08:08:00;5.07;;;3.00;;
62796;SDS011;48839;48.546;-4.178;2022-09-03T08:10:26;4.47;;;2.85;;
62796;SDS011;48839;48.546;-4.178;2022-09-03T08:12:54;7.13;;;3.35;;
62796;SDS011;48839;48.546;-4.178;2022-09-03T08:15:20;6.78;;;2.80;;
62796;SDS011;48839;48.546;-4.178;2022-09-03T08:17:46;6.15;;;3.20;;
62796;SDS011;48839;48.546;-4.178;2022-09-03T08:20:13;5.10;;;2.97;;
62796;SDS011;48839;48.546;-4.178;2022-09-03T08:22:40;4.60;;;2.70;;
62796;SDS011;48839;48.546;-4.178;2022-09-03T08:25:06;9.00;;;3.03;;
62796;SDS011;48839;48.546;-4.178;2022-09-03T08:27:32;6.60;;;3.10;;
62796;SDS011;48839;48.546;-4.178;2022-09-03T08:29:59;4.82;;;3.13;;
62796;SDS011;48839;48.546;-4.178;2022-09-03T08:32:25;6.22;;;2.90;;
62796;SDS011;48839;48.546;-4.178;2022-09-03T08:34:51;5.10;;;3.00;;
62796;SDS011;48839;48.546;-4.178;2022-09-03T08:37:17;3.40;;;2.60;;
62796;SDS011;48839;48.546;-4.178;2022-09-03T08:39:43;3.78;;;2.40;;
62796;SDS011;48839;48.546;-4.178;2022-09-03T08:44:40;4.72;;;2.05;;
62796;SDS011;48839;48.546;-4.178;2022-09-03T08:48:13;7.07;;;2.58;;
62796;SDS011;48839;48.546;-4.178;2022-09-03T08:52:46;4.78;;;2.40;;
62796;SDS011;48839;48.546;-4.178;2022-09-03T08:55:22;4.90;;;2.00;;
62796;SDS011;48839;48.546;-4.178;2022-09-03T08:57:55;3.92;;;1.98;;
62796;SDS011;48839;48.546;-4.178;2022-09-03T09:00:22;3.72;;;1.77;;
62796;SDS011;48839;48.546;-4.178;2022-09-03T09:08:22;4.25;;;1.70;;
62796;SDS011;48839;48.546;-4.178;2022-09-03T09:10:53;2.97;;;1.42;;
62796;SDS011;48839;48.546;-4.178;2022-09-03T09:13:39;4.57;;;1.50;;
62796;SDS011;48839;48.546;-4.178;2022-09-03T09:16:16;4.90;;;1.40;;
62796;SDS011;48839;48.546;-4.178;2022-09-03T09:19:04;4.72;;;2.22;;
62796;SDS011;48839;48.546;-4.178;2022-09-03T09:21:58;7.22;;;1.60;;
62796;SDS011;48839;48.546;-4.178;2022-09-03T09:24:22;4.93;;;1.40;;
62796;SDS011;48839;48.546;-4.178;2022-09-03T09:26:57;2.42;;;1.23;;
62796;SDS011;48839;48.546;-4.178;2022-09-03T09:29:25;3.38;;;1.85;;
62796;SDS011;48839;48.546;-4.178;2022-09-03T09:31:52;2.42;;;1.13;;
62796;SDS011;48839;48.546;-4.178;2022-09-03T09:34:18;4.10;;;1.70;;
62796;SDS011;48839;48.546;-4.178;2022-09-03T09:36:48;4.07;;;1.40;;
62796;SDS011;48839;48.546;-4.178;2022-09-03T09:39:15;4.88;;;1.40;;
62796;SDS011;48839;48.546;-4.178;2022-09-03T09:41:42;3.60;;;1.52;;
62796;SDS011;48839;48.546;-4.178;2022-09-03T09:44:16;3.05;;;1.52;;
62796;SDS011;48839;48.546;-4.178;2022-09-03T09:46:43;3.90;;;1.60;;
62796;SDS011;48839;48.546;-4.178;2022-09-03T09:49:28;3.63;;;1.35;;
62796;SDS011;48839;48.546;-4.178;2022-09-03T09:52:02;4.55;;;1.67;;
62796;SDS011;48839;48.546;-4.178;2022-09-03T09:57:02;3.95;;;1.83;;
62796;SDS011;48839;48.546;-4.178;2022-09-03T09:59:29;4.88;;;1.60;;
62796;SDS011;48839;48.546;-4.178;2022-09-03T10:02:28;5.80;;;1.50;;
62796;SDS011;48839;48.546;-4.178;2022-09-03T10:04:48;8.65;;;2.00;;
62796;SDS011;48839;48.546;-4.178;2022-09-03T10:09:56;6.20;;;1.52;;
62796;SDS011;48839;48.546;-4.178;2022-09-03T10:14:50;8.20;;;1.42;;
62796;SDS011;48839;48.546;-4.178;2022-09-03T10:17:20;4.85;;;1.40;;
62796;SDS011;48839;48.546;-4.178;2022-09-03T10:22:38;3.53;;;1.60;;
62796;SDS011;48839;48.546;-4.178;2022-09-03T10:25:06;3.70;;;1.58;;
62796;SDS011;48839;48.546;-4.178;2022-09-03T10:27:33;6.10;;;1.50;;
62796;SDS011;48839;48.546;-4.178;2022-09-03T10:30:00;3.08;;;1.52;;
62796;SDS011;48839;48.546;-4.178;2022-09-03T10:35:17;4.57;;;1.45;;
62796;SDS011;48839;48.546;-4.178;2022-09-03T10:37:40;3.55;;;1.15;;
62796;SDS011;48839;48.546;-4.178;2022-09-03T10:50:47;5.43;;;1.48;;
62796;SDS011;48839;48.546;-4.178;2022-09-03T11:00:47;4.57;;;1.20;;
62796;SDS011;48839;48.546;-4.178;2022-09-03T11:05:57;2.22;;;1.23;;
62796;SDS011;48839;48.546;-4.178;2022-09-03T11:08:33;4.90;;;1.30;;
62796;SDS011;48839;48.546;-4.178;2022-09-03T11:11:09;3.88;;;1.15;;
62796;SDS011;48839;48.546;-4.178;2022-09-03T11:13:38;3.97;;;1.45;;
62796;SDS011;48839;48.546;-4.178;2022-09-03T11:16:07;5.30;;;1.80;;
62796;SDS011;48839;48.546;-4.178;2022-09-03T11:18:38;2.60;;;1.05;;
62796;SDS011;48839;48.546;-4.178;2022-09-03T11:21:07;3.85;;;1.10;;
62796;SDS011;48839;48.546;-4.178;2022-09-03T11:23:35;3.78;;;1.00;;
62796;SDS011;48839;48.546;-4.178;2022-09-03T11:26:07;3.90;;;1.48;;
62796;SDS011;48839;48.546;-4.178;2022-09-03T11:33:38;7.00;;;1.27;;
62796;SDS011;48839;48.546;-4.178;2022-09-03T11:36:06;2.92;;;0.90;;
62796;SDS011;48839;48.546;-4.178;2022-09-03T11:38:32;2.88;;;1.08;;
62796;SDS011;48839;48.546;-4.178;2022-09-03T11:41:03;2.35;;;1.00;;
62796;SDS011;48839;48.546;-4.178;2022-09-03T11:43:37;3.35;;;1.17;;
62796;SDS011;48839;48.546;-4.178;2022-09-03T11:46:11;2.63;;;1.27;;
62796;SDS011;48839;48.546;-4.178;2022-09-03T11:48:45;2.75;;;1.42;;
62796;SDS011;48839;48.546;-4.178;2022-09-03T11:53:51;2.47;;;1.38;;
62796;SDS011;48839;48.546;-4.178;2022-09-03T11:56:18;3.20;;;1.40;;
62796;SDS011;48839;48.546;-4.178;2022-09-03T11:58:44;3.05;;;1.02;;
62796;SDS011;48839;48.546;-4.178;2022-09-03T12:01:11;3.00;;;1.27;;
62796;SDS011;48839;48.546;-4.178;2022-09-03T12:19:56;3.03;;;1.25;;
62796;SDS011;48839;48.546;-4.178;2022-09-03T12:22:24;6.65;;;1.63;;
62796;SDS011;48839;48.546;-4.178;2022-09-03T12:24:50;2.83;;;1.05;;
62796;SDS011;48839;48.546;-4.178;2022-09-03T12:27:20;2.58;;;1.33;;
62796;SDS011;48839;48.546;-4.178;2022-09-03T12:32:21;2.03;;;0.95;;
62796;SDS011;48839;48.546;-4.178;2022-09-03T12:34:48;3.58;;;1.40;;
62796;SDS011;48839;48.546;-4.178;2022-09-03T12:37:21;2.13;;;1.05;;
62796;SDS011;48839;48.546;-4.178;2022-09-03T12:39:54;2.80;;;1.13;;
62796;SDS011;48839;48.546;-4.178;2022-09-03T12:42:28;3.47;;;1.30;;
62796;SDS011;48839;48.546;-4.178;2022-09-03T12:44:55;4.20;;;1.60;;
62796;SDS011;48839;48.546;-4.178;2022-09-03T12:47:22;4.65;;;1.45;;
62796;SDS011;48839;48.546;-4.178;2022-09-03T12:49:49;4.65;;;1.65;;
62796;SDS011;48839;48.546;-4.178;2022-09-03T12:57:41;4.60;;;1.20;;
62796;SDS011;48839;48.546;-4.178;2022-09-03T13:00:09;3.05;;;1.10;;
62796;SDS011;48839;48.546;-4.178;2022-09-03T13:05:18;2.20;;;1.33;;
62796;SDS011;48839;48.546;-4.178;2022-09-03T13:07:46;2.83;;;1.20;;
62796;SDS011;48839;48.546;-4.178;2022-09-03T13:10:21;4.03;;;1.48;;
62796;SDS011;48839;48.546;-4.178;2022-09-03T13:12:48;3.10;;;1.15;;
62796;SDS011;48839;48.546;-4.178;2022-09-03T13:15:20;3.65;;;1.67;;
62796;SDS011;48839;48.546;-4.178;2022-09-03T13:18:08;5.60;;;1.35;;
62796;SDS011;48839;48.546;-4.178;2022-09-03T13:33:27;3.50;;;1.30;;
62796;SDS011;48839;48.546;-4.178;2022-09-03T13:36:01;3.35;;;1.38;;
62796;SDS011;48839;48.546;-4.178;2022-09-03T13:43:30;1.52;;;1.20;;
62796;SDS011;48839;48.546;-4.178;2022-09-03T13:48:27;4.30;;;1.35;;
62796;SDS011;48839;48.546;-4.178;2022-09-03T13:51:19;7.20;;;2.17;;
62796;SDS011;48839;48.546;-4.178;2022-09-03T13:56:18;4.65;;;1.50;;
62796;SDS011;48839;48.546;-4.178;2022-09-03T13:58:46;3.35;;;1.20;;
62796;SDS011;48839;48.546;-4.178;2022-09-03T14:01:23;8.63;;;1.73;;
62796;SDS011;48839;48.546;-4.178;2022-09-03T14:03:58;2.70;;;1.20;;
62796;SDS011;48839;48.546;-4.178;2022-09-03T14:14:12;9.27;;;2.30;;
62796;SDS011;48839;48.546;-4.178;2022-09-03T14:16:58;2.83;;;1.50;;
62796;SDS011;48839;48.546;-4.178;2022-09-03T14:21:57;1.55;;;1.35;;
62796;SDS011;48839;48.546;-4.178;2022-09-03T14:24:38;7.22;;;1.38;;
62796;SDS011;48839;48.546;-4.178;2022-09-03T14:27:05;5.65;;;1.15;;
62796;SDS011;48839;48.546;-4.178;2022-09-03T14:29:32;3.22;;;1.40;;
62796;SDS011;48839;48.546;-4.178;2022-09-03T14:39:44;3.08;;;1.35;;
62796;SDS011;48839;48.546;-4.178;2022-09-03T14:47:20;1.80;;;1.10;;
62796;SDS011;48839;48.546;-4.178;2022-09-03T15:08:01;2.55;;;1.40;;
62796;SDS011;48839;48.546;-4.178;2022-09-03T15:10:37;3.28;;;1.23;;
62796;SDS011;48839;48.546;-4.178;2022-09-03T15:13:15;6.13;;;2.38;;
62796;SDS011;48839;48.546;-4.178;2022-09-03T15:20:48;2.45;;;1.10;;
62796;SDS011;48839;48.546;-4.178;2022-09-03T15:26:18;5.05;;;1.58;;
62796;SDS011;48839;48.546;-4.178;2022-09-03T15:31:34;3.00;;;1.58;;
62796;SDS011;48839;48.546;-4.178;2022-09-03T15:34:13;3.30;;;1.30;;
62796;SDS011;48839;48.546;-4.178;2022-09-03T15:36:40;2.53;;;1.30;;
62796;SDS011;48839;48.546;-4.178;2022-09-03T15:39:09;6.85;;;1.73;;
62796;SDS011;48839;48.546;-4.178;2022-09-03T15:44:07;6.70;;;1.60;;
62796;SDS011;48839;48.546;-4.178;2022-09-03T15:49:21;4.63;;;1.35;;
62796;SDS011;48839;48.546;-4.178;2022-09-03T15:51:57;7.00;;;1.38;;
62796;SDS011;48839;48.546;-4.178;2022-09-03T15:57:10;3.78;;;1.45;;
62796;SDS011;48839;48.546;-4.178;2022-09-03T16:02:33;3.70;;;1.40;;
62796;SDS011;48839;48.546;-4.178;2022-09-03T16:05:13;2.42;;;1.42;;
62796;SDS011;48839;48.546;-4.178;2022-09-03T16:15:25;6.00;;;1.20;;
62796;SDS011;48839;48.546;-4.178;2022-09-03T16:20:42;3.65;;;1.35;;
62796;SDS011;48839;48.546;-4.178;2022-09-03T16:23:20;5.75;;;1.20;;
62796;SDS011;48839;48.546;-4.178;2022-09-03T16:25:54;7.05;;;1.30;;
62796;SDS011;48839;48.546;-4.178;2022-09-03T16:35:47;4.35;;;1.33;;
62796;SDS011;48839;48.546;-4.178;2022-09-03T16:59:09;2.63;;;1.25;;
62796;SDS011;48839;48.546;-4.178;2022-09-03T17:04:25;7.00;;;2.10;;
62796;SDS011;48839;48.546;-4.178;2022-09-03T17:12:36;7.50;;;1.67;;
62796;SDS011;48839;48.546;-4.178;2022-09-03T17:20:59;6.05;;;1.80;;
62796;SDS011;48839;48.546;-4.178;2022-09-03T17:38:40;5.18;;;1.40;;
62796;SDS011;48839;48.546;-4.178;2022-09-03T17:43:46;7.55;;;2.53;;
62796;SDS011;48839;48.546;-4.178;2022-09-03T17:46:36;7.07;;;1.38;;
62796;SDS011;48839;48.546;-4.178;2022-09-03T17:49:05;6.22;;;1.60;;
62796;SDS011;48839;48.546;-4.178;2022-09-03T17:54:14;3.30;;;1.60;;
62796;SDS011;48839;48.546;-4.178;2022-09-03T17:56:44;6.88;;;1.50;;
62796;SDS011;48839;48.546;-4.178;2022-09-03T17:59:20;7.03;;;2.10;;
62796;SDS011;48839;48.546;-4.178;2022-09-03T18:01:51;5.43;;;1.70;;
62796;SDS011;48839;48.546;-4.178;2022-09-03T18:04:38;4.00;;;1.48;;
62796;SDS011;48839;48.546;-4.178;2022-09-03T18:07:13;6.07;;;1.70;;
62796;SDS011;48839;48.546;-4.178;2022-09-03T18:09:47;8.48;;;1.90;;
62796;SDS011;48839;48.546;-4.178;2022-09-03T18:12:20;4.00;;;1.55;;
62796;SDS011;48839;48.546;-4.178;2022-09-03T18:14:55;6.25;;;1.60;;
62796;SDS011;48839;48.546;-4.178;2022-09-03T18:17:26;9.63;;;1.92;;
62796;SDS011;48839;48.546;-4.178;2022-09-03T18:19:54;5.18;;;1.63;;
62796;SDS011;48839;48.546;-4.178;2022-09-03T18:22:53;4.05;;;1.60;;
62796;SDS011;48839;48.546;-4.178;2022-09-03T18:25:40;7.05;;;2.78;;
62796;SDS011;48839;48.546;-4.178;2022-09-03T18:29:10;6.55;;;1.67;;
62796;SDS011;48839;48.546;-4.178;2022-09-03T18:31:34;9.15;;;1.77;;
62796;SDS011;48839;48.546;-4.178;2022-09-03T18:34:20;7.53;;;1.70;;
62796;SDS011;48839;48.546;-4.178;2022-09-03T18:37:08;5.07;;;1.60;;
62796;SDS011;48839;48.546;-4.178;2022-09-03T18:39:52;5.10;;;1.55;;
62796;SDS011;48839;48.546;-4.178;2022-09-03T18:42:48;6.93;;;2.20;;
62796;SDS011;48839;48.546;-4.178;2022-09-03T18:57:00;7.57;;;1.88;;
62796;SDS011;48839;48.546;-4.178;2022-09-03T19:08:36;4.47;;;1.80;;
62796;SDS011;48839;48.546;-4.178;2022-09-03T19:11:29;11.32;;;1.75;;
62796;SDS011;48839;48.546;-4.178;2022-09-03T19:20:37;7.57;;;1.80;;
62796;SDS011;48839;48.546;-4.178;2022-09-03T19:23:24;10.02;;;2.70;;
62796;SDS011;48839;48.546;-4.178;2022-09-03T19:26:20;8.38;;;1.80;;
62796;SDS011;48839;48.546;-4.178;2022-09-03T19:29:13;11.50;;;2.80;;
62796;SDS011;48839;48.546;-4.178;2022-09-03T19:32:03;5.88;;;1.92;;
62796;SDS011;48839;48.546;-4.178;2022-09-03T19:40:56;6.88;;;1.85;;
62796;SDS011;48839;48.546;-4.178;2022-09-03T19:43:55;5.20;;;1.65;;
62796;SDS011;48839;48.546;-4.178;2022-09-03T19:46:50;9.95;;;2.10;;
62796;SDS011;48839;48.546;-4.178;2022-09-03T19:55:15;7.43;;;1.95;;
62796;SDS011;48839;48.546;-4.178;2022-09-03T19:58:02;8.73;;;2.08;;
62796;SDS011;48839;48.546;-4.178;2022-09-03T20:00:46;7.45;;;1.67;;
62796;SDS011;48839;48.546;-4.178;2022-09-03T20:03:31;8.05;;;1.75;;
62796;SDS011;48839;48.546;-4.178;2022-09-03T20:06:15;7.53;;;1.80;;
62796;SDS011;48839;48.546;-4.178;2022-09-03T20:09:06;8.52;;;1.90;;
62796;SDS011;48839;48.546;-4.178;2022-09-03T20:11:53;10.07;;;1.77;;
62796;SDS011;48839;48.546;-4.178;2022-09-03T20:14:21;7.28;;;2.10;;
62796;SDS011;48839;48.546;-4.178;2022-09-03T20:16:50;8.60;;;1.98;;